createdAt,value
2022-12-01T00:01:21.923Z,99260.31
2022-12-01T00:03:49.744Z,99275.47
2022-12-01T00:06:19.331Z,99268.63
2022-12-01T00:09:03.208Z,99272.41
2022-12-01T00:11:31.486Z,99275.91
2022-12-01T00:13:59.509Z,99269.19
2022-12-01T00:16:28.788Z,99274.53
2022-12-01T00:18:57.127Z,99264.25
2022-12-01T00:21:26.232Z,99260.44
2022-12-01T00:23:56.768Z,99265.22
2022-12-01T00:26:25.274Z,99266.47
2022-12-01T00:28:57.389Z,99266.44
2022-12-01T00:31:25.752Z,99270.13
2022-12-01T00:33:55.227Z,99268.03
2022-12-01T00:36:24.057Z,99269.38
2022-12-01T00:38:53.541Z,99259.53
2022-12-01T00:41:21.880Z,99272.13
2022-12-01T00:43:50.820Z,99263.38
2022-12-01T00:46:18.896Z,99267.84
2022-12-01T00:48:46.823Z,99275.03
2022-12-01T00:51:16.044Z,99266.47
2022-12-01T00:53:43.977Z,99268.50
2022-12-01T00:56:14.906Z,99264.88
2022-12-01T00:58:42.753Z,99275.22
2022-12-01T01:01:10.553Z,99276.47
2022-12-01T01:03:38.523Z,99269.56
2022-12-01T01:06:07.812Z,99270.47
2022-12-01T01:08:37.191Z,99273.19
2022-12-01T01:11:07.145Z,99269.19
2022-12-01T01:13:35.812Z,99267.09
2022-12-01T01:16:05.848Z,99276.03
2022-12-01T01:18:34.280Z,99280.47
2022-12-01T01:21:04.584Z,99273.25
2022-12-01T01:23:32.694Z,99283.19
2022-12-01T01:26:04.641Z,99285.25
2022-12-01T01:28:33.353Z,99291.16
2022-12-01T01:31:01.494Z,99285.25
2022-12-01T01:33:31.024Z,99286.44
2022-12-01T01:35:59.967Z,99279.94
2022-12-01T01:38:30.381Z,99281.16
2022-12-01T01:40:58.482Z,99281.72
2022-12-01T01:43:45.941Z,99281.09
2022-12-01T01:46:16.926Z,99281.56
2022-12-01T01:48:50.819Z,99278.75
2022-12-01T01:51:23.321Z,99285.81
2022-12-01T01:53:55.927Z,99288.50
2022-12-01T01:56:24.758Z,99289.13
2022-12-01T01:58:54.602Z,99291.13
2022-12-01T02:01:22.708Z,99284.69
2022-12-01T02:03:53.485Z,99286.25
2022-12-01T02:06:23.222Z,99282.31
2022-12-01T02:08:51.289Z,99284.38
2022-12-01T02:11:51.218Z,99278.53
2022-12-01T02:14:42.454Z,99280.47
2022-12-01T02:17:17.691Z,99276.97
2022-12-01T02:20:07.871Z,99278.66
2022-12-01T02:22:54.695Z,99277.78
2022-12-01T02:25:36.488Z,99279.44
2022-12-01T02:28:18.860Z,99279.22
2022-12-01T02:30:51.847Z,99275.78
2022-12-01T02:33:24.558Z,99277.00
2022-12-01T02:35:58.774Z,99271.47
2022-12-01T02:38:31.989Z,99276.16
2022-12-01T02:41:06.185Z,99266.38
2022-12-01T02:43:41.858Z,99268.31
2022-12-01T02:46:16.771Z,99271.78
2022-12-01T02:48:49.533Z,99269.56
2022-12-01T02:51:21.644Z,99264.69
2022-12-01T02:53:52.204Z,99267.06
2022-12-01T02:56:23.177Z,99268.97
2022-12-01T02:58:50.958Z,99270.91
2022-12-01T03:01:46.015Z,99285.69
2022-12-01T03:04:42.387Z,99275.47
2022-12-01T03:07:20.873Z,99277.25
2022-12-01T03:09:58.421Z,99269.50
2022-12-01T03:12:35.465Z,99269.19
2022-12-01T03:15:10.655Z,99269.09
2022-12-01T03:17:46.350Z,99264.09
2022-12-01T03:20:19.936Z,99260.34
2022-12-01T03:22:53.798Z,99269.38
2022-12-01T03:25:26.244Z,99273.59
2022-12-01T03:28:20.226Z,99267.84
2022-12-01T03:30:47.499Z,99266.78
2022-12-01T03:33:22.320Z,99265.31
2022-12-01T03:35:55.315Z,99275.56
2022-12-01T03:38:25.792Z,99269.31
2022-12-01T03:40:58.408Z,99267.50
2022-12-01T03:43:31.643Z,99266.50
2022-12-01T03:46:06.232Z,99268.25
2022-12-01T03:48:35.897Z,99270.34
2022-12-01T03:51:11.358Z,99273.53
2022-12-01T03:53:48.755Z,99271.28
2022-12-01T03:56:20.766Z,99274.09
2022-12-01T03:58:51.858Z,99269.81
2022-12-01T04:01:20.778Z,99266.50
2022-12-01T04:03:49.962Z,99265.13
2022-12-01T04:06:17.703Z,99272.75
2022-12-01T04:08:45.475Z,99271.94
2022-12-01T04:11:32.838Z,99277.13
2022-12-01T04:14:00.932Z,99272.06
2022-12-01T04:16:28.745Z,99273.41
2022-12-01T04:18:57.892Z,99277.19
2022-12-01T04:21:25.656Z,99279.81
2022-12-01T04:24:02.187Z,99271.13
2022-12-01T04:26:30.926Z,99270.69
2022-12-01T04:28:59.256Z,99270.56
2022-12-01T04:31:27.131Z,99269.78
2022-12-01T04:33:55.817Z,99276.03
2022-12-01T04:36:28.901Z,99272.28
2022-12-01T04:38:56.669Z,99270.00
2022-12-01T04:41:24.800Z,99275.56
2022-12-01T04:43:53.909Z,99272.34
2022-12-01T04:46:22.036Z,99272.50
2022-12-01T04:48:50.322Z,99279.38
2022-12-01T04:51:18.484Z,99282.81
2022-12-01T04:53:47.687Z,99266.34
2022-12-01T04:56:15.457Z,99279.78
2022-12-01T04:58:43.328Z,99276.25
2022-12-01T05:01:13.166Z,99272.63
2022-12-01T05:03:42.503Z,99274.59
2022-12-01T05:06:12.569Z,99275.25
2022-12-01T05:08:40.815Z,99267.69
2022-12-01T05:11:12.225Z,99279.53
2022-12-01T05:13:40.852Z,99276.66
2022-12-01T05:16:10.738Z,99287.66
2022-12-01T05:18:39.078Z,99283.63
2022-12-01T05:21:13.144Z,99278.13
2022-12-01T05:23:41.017Z,99278.31
2022-12-01T05:26:10.460Z,99284.41
2022-12-01T05:28:38.764Z,99278.41
2022-12-01T05:31:06.827Z,99274.25
2022-12-01T05:33:34.635Z,99285.81
2022-12-01T05:36:02.502Z,99289.00
2022-12-01T05:38:30.231Z,99292.41
2022-12-01T05:40:58.054Z,99285.94
2022-12-01T05:43:29.587Z,99290.63
2022-12-01T05:45:58.257Z,99284.22
2022-12-01T05:48:26.628Z,99288.72
2022-12-01T05:50:54.605Z,99280.31
2022-12-01T05:53:22.835Z,99285.38
2022-12-01T05:55:54.362Z,99283.16
2022-12-01T05:58:22.478Z,99282.03
2022-12-01T06:00:51.667Z,99286.03
2022-12-01T06:03:19.449Z,99291.63
2022-12-01T06:05:47.407Z,99293.47
2022-12-01T06:08:15.407Z,99295.47
2022-12-01T06:10:43.130Z,99289.22
2022-12-01T06:13:10.947Z,99290.63
2022-12-01T06:15:38.740Z,99299.66
2022-12-01T06:18:07.966Z,99297.41
2022-12-01T06:20:35.751Z,99300.34
2022-12-01T06:23:03.567Z,99288.22
2022-12-01T06:25:31.400Z,99295.25
2022-12-01T06:27:59.518Z,99292.06
2022-12-01T06:30:27.557Z,99290.81
2022-12-01T06:32:55.384Z,99302.97
2022-12-01T06:35:25.041Z,99307.31
2022-12-01T06:37:54.319Z,99310.44
2022-12-01T06:40:22.593Z,99311.63
2022-12-01T06:42:50.468Z,99311.41
2022-12-01T06:45:18.376Z,99315.22
2022-12-01T06:47:48.231Z,99311.09
2022-12-01T06:50:18.646Z,99308.66
2022-12-01T06:52:47.788Z,99311.72
2022-12-01T06:55:16.118Z,99317.31
2022-12-01T06:57:44.259Z,99308.66
2022-12-01T07:00:21.734Z,99306.94
2022-12-01T07:02:49.658Z,99309.25
2022-12-01T07:05:17.728Z,99313.56
2022-12-01T07:07:49.264Z,99316.91
2022-12-01T07:10:17.169Z,99322.13
2022-12-01T07:12:44.980Z,99325.44
2022-12-01T07:15:13.571Z,99333.47
2022-12-01T07:17:41.328Z,99323.44
2022-12-01T07:20:11.257Z,99325.00
2022-12-01T07:22:39.567Z,99319.06
2022-12-01T07:25:09.610Z,99327.91
2022-12-01T07:27:37.489Z,99322.19
2022-12-01T07:30:06.355Z,99323.06
2022-12-01T07:32:34.236Z,99331.16
2022-12-01T07:35:02.097Z,99335.22
2022-12-01T07:37:29.978Z,99328.00
2022-12-01T07:39:57.844Z,99330.75
2022-12-01T07:42:27.149Z,99331.06
2022-12-01T07:44:54.946Z,99337.81
2022-12-01T07:47:22.755Z,99336.38
2022-12-01T07:49:50.857Z,99345.41
2022-12-01T07:52:18.798Z,99340.53
2022-12-01T07:54:46.579Z,99329.50
2022-12-01T07:57:14.950Z,99336.75
2022-12-01T07:59:44.187Z,99341.13
2022-12-01T08:02:12.147Z,99332.13
2022-12-01T08:04:40.188Z,99327.19
2022-12-01T08:07:08.073Z,99329.22
2022-12-01T08:09:35.946Z,99334.28
2022-12-01T08:12:03.914Z,99336.75
2022-12-01T08:14:31.730Z,99332.78
2022-12-01T08:17:01.212Z,99346.63
2022-12-01T08:19:29.301Z,99342.25
2022-12-01T08:21:57.114Z,99354.72
2022-12-01T08:24:25.602Z,99353.47
2022-12-01T08:26:53.563Z,99354.00
2022-12-01T08:29:21.309Z,99352.38
2022-12-01T08:31:49.231Z,99352.41
2022-12-01T08:34:20.856Z,99348.94
2022-12-01T08:36:48.705Z,99355.75
2022-12-01T08:39:16.798Z,99355.91
2022-12-01T08:41:44.571Z,99359.06
2022-12-01T08:44:12.500Z,99365.19
2022-12-01T08:46:43.052Z,99361.84
2022-12-01T08:49:11.029Z,99359.31
2022-12-01T08:51:40.422Z,99365.50
2022-12-01T08:54:08.596Z,99366.31
2022-12-01T08:56:38.359Z,99363.03
2022-12-01T08:59:08.860Z,99363.50
2022-12-01T09:01:51.943Z,99362.81
2022-12-01T09:04:21.152Z,99363.44
2022-12-01T09:06:52.496Z,99353.72
2022-12-01T09:09:22.630Z,99365.22
2022-12-01T09:11:54.049Z,99358.91
2022-12-01T09:14:23.222Z,99370.16
2022-12-01T09:16:51.819Z,99364.75
2022-12-01T09:19:24.928Z,99366.31
2022-12-01T09:21:54.450Z,99365.78
2022-12-01T09:24:22.479Z,99362.00
2022-12-01T09:26:50.618Z,99364.91
2022-12-01T09:29:18.561Z,99359.34
2022-12-01T09:31:46.518Z,99363.94
2022-12-01T09:34:16.243Z,99366.56
2022-12-01T09:36:44.537Z,99364.41
2022-12-01T09:39:16.849Z,99365.50
2022-12-01T09:41:48.111Z,99366.34
2022-12-01T09:44:23.636Z,99363.16
2022-12-01T09:46:59.784Z,99376.81
2022-12-01T09:49:39.098Z,99359.41
2022-12-01T09:52:10.621Z,99360.75
2022-12-01T09:54:39.884Z,99355.69
2022-12-01T09:57:14.237Z,99357.41
2022-12-01T09:59:43.458Z,99356.50
2022-12-01T10:02:25.522Z,99360.53
2022-12-01T10:04:56.430Z,99355.16
2022-12-01T10:07:29.481Z,99353.19
2022-12-01T10:10:04.028Z,99352.28
2022-12-01T10:12:34.866Z,99356.81
2022-12-01T10:15:16.194Z,99352.13
2022-12-01T10:17:56.622Z,99337.38
2022-12-01T10:20:29.550Z,99331.22
2022-12-01T10:23:28.801Z,99330.31
2022-12-01T10:26:00.185Z,99325.97
2022-12-01T10:28:46.661Z,99321.13
2022-12-01T10:31:21.881Z,99322.97
2022-12-01T10:34:05.215Z,99316.84
2022-12-01T10:36:34.628Z,99319.53
2022-12-01T10:39:03.700Z,99314.69
2022-12-01T10:41:37.256Z,99317.47
2022-12-01T10:44:06.869Z,99318.59
2022-12-01T10:46:42.744Z,99313.66
2022-12-01T10:49:12.590Z,99308.94
2022-12-01T10:51:53.087Z,99311.16
2022-12-01T10:54:25.422Z,99305.22
2022-12-01T10:56:57.356Z,99306.03
2022-12-01T10:59:30.794Z,99304.94
2022-12-01T11:01:59.819Z,99302.00
2022-12-01T11:04:47.545Z,99302.00
2022-12-01T11:07:21.857Z,99290.88
2022-12-01T11:10:00.785Z,99295.38
2022-12-01T11:12:30.422Z,99297.19
2022-12-01T11:14:58.758Z,99285.31
2022-12-01T11:17:30.587Z,99290.47
2022-12-01T11:19:59.109Z,99286.59
2022-12-01T11:22:30.051Z,99282.84
2022-12-01T11:25:01.403Z,99281.22
2022-12-01T11:27:34.909Z,99276.19
2022-12-01T11:30:06.435Z,99277.34
2022-12-01T11:32:36.902Z,99270.09
2022-12-01T11:35:15.881Z,99265.97
2022-12-01T11:38:13.211Z,99267.38
2022-12-01T11:40:47.720Z,99270.81
2022-12-01T11:43:25.144Z,99261.44
2022-12-01T11:45:54.681Z,99270.03
2022-12-01T11:48:26.778Z,99266.75
2022-12-01T11:51:11.951Z,99267.38
2022-12-01T11:53:41.897Z,99258.19
2022-12-01T11:56:20.858Z,99264.63
2022-12-01T11:58:58.952Z,99258.44
2022-12-01T12:01:40.509Z,99263.19
2022-12-01T12:04:23.988Z,99252.84
2022-12-01T12:07:02.309Z,99250.75
2022-12-01T12:09:58.723Z,99251.16
2022-12-01T12:12:43.183Z,99256.91
2022-12-01T12:15:24.080Z,99254.13
2022-12-01T12:18:03.210Z,99244.88
2022-12-01T12:20:41.056Z,99244.09
2022-12-01T12:23:33.950Z,99241.94
2022-12-01T12:26:11.061Z,99237.06
2022-12-01T12:28:52.765Z,99244.22
2022-12-01T12:31:30.581Z,99244.91
2022-12-01T12:34:23.141Z,99238.34
2022-12-01T12:37:02.824Z,99241.88
2022-12-01T12:40:01.570Z,99229.19
2022-12-01T12:42:40.556Z,99229.78
2022-12-01T12:45:21.788Z,99235.41
2022-12-01T12:48:09.091Z,99234.38
2022-12-01T12:50:44.698Z,99233.88
2022-12-01T12:53:19.269Z,99225.94
2022-12-01T12:55:50.559Z,99221.91
2022-12-01T12:58:24.380Z,99232.66
2022-12-01T13:00:59.265Z,99237.06
2022-12-01T13:03:47.782Z,99231.03
2022-12-01T13:06:23.503Z,99226.69
2022-12-01T13:08:56.101Z,99219.97
2022-12-01T13:11:28.614Z,99230.66
2022-12-01T13:14:03.843Z,99228.84
2022-12-01T13:16:35.975Z,99230.03
2022-12-01T13:19:12.975Z,99225.16
2022-12-01T13:21:44.009Z,99224.56
2022-12-01T13:24:19.829Z,99221.13
2022-12-01T13:26:55.482Z,99219.47
2022-12-01T13:29:25.932Z,99226.88
2022-12-01T13:31:55.672Z,99216.56
2022-12-01T13:34:27.586Z,99215.69
2022-12-01T13:36:56.720Z,99215.22
2022-12-01T13:39:26.560Z,99223.78
2022-12-01T13:42:03.621Z,99217.53
2022-12-01T13:44:40.407Z,99223.03
2022-12-01T13:47:34.398Z,99222.81
2022-12-01T13:50:35.857Z,99219.75
2022-12-01T13:53:12.532Z,99217.88
2022-12-01T13:55:58.397Z,99210.94
2022-12-01T13:58:42.963Z,99222.59
2022-12-01T14:01:53.676Z,99211.69
2022-12-01T14:04:32.439Z,99222.94
2022-12-01T14:07:35.389Z,99221.66
2022-12-01T14:10:24.133Z,99220.19
2022-12-01T14:12:55.466Z,99226.56
2022-12-01T14:15:36.717Z,99214.28
2022-12-01T14:18:07.959Z,99215.06
2022-12-01T14:20:47.196Z,99216.66
2022-12-01T14:23:25.864Z,99219.50
2022-12-01T14:26:10.775Z,99220.13
2022-12-01T14:29:25.904Z,99218.94
2022-12-01T14:32:25.054Z,99214.66
2022-12-01T14:34:55.428Z,99215.06
2022-12-01T14:37:26.741Z,99220.59
2022-12-01T14:39:59.484Z,99216.03
2022-12-01T14:42:52.772Z,99213.94
2022-12-01T14:45:24.947Z,99202.59
2022-12-01T14:48:00.788Z,99206.72
2022-12-01T14:50:40.886Z,99207.00
2022-12-01T14:53:21.605Z,99206.88
2022-12-01T14:55:54.613Z,99195.66
2022-12-01T14:58:26.964Z,99203.44
2022-12-01T15:01:07.058Z,99202.72
2022-12-01T15:03:40.501Z,99203.97
2022-12-01T15:06:09.473Z,99205.88
2022-12-01T15:08:45.960Z,99204.28
2022-12-01T15:11:26.407Z,99207.06
2022-12-01T15:13:56.976Z,99204.59
2022-12-01T15:16:31.977Z,99200.19
2022-12-01T15:18:59.906Z,99203.69
2022-12-01T15:21:29.363Z,99189.13
2022-12-01T15:24:00.464Z,99194.72
2022-12-01T15:26:32.046Z,99200.28
2022-12-01T15:29:24.942Z,99192.19
2022-12-01T15:31:55.234Z,99201.75
2022-12-01T15:34:25.666Z,99199.91
2022-12-01T15:36:55.132Z,99202.63
2022-12-01T15:39:30.322Z,99210.56
2022-12-01T15:42:01.023Z,99211.38
2022-12-01T15:44:33.246Z,99211.84
2022-12-01T15:47:01.312Z,99205.97
2022-12-01T15:49:32.848Z,99210.25
2022-12-01T15:52:09.482Z,99208.25
2022-12-01T15:54:38.787Z,99216.06
2022-12-01T15:57:07.766Z,99210.38
2022-12-01T15:59:40.876Z,99209.78
2022-12-01T16:02:25.449Z,99203.22
2022-12-01T16:05:04.206Z,99210.63
2022-12-01T16:08:10.932Z,99211.31
2022-12-01T16:10:31.375Z,99217.00
2022-12-01T16:13:36.973Z,99212.75
2022-12-01T16:16:37.059Z,99203.53
2022-12-01T16:19:23.448Z,99199.75
2022-12-01T16:21:54.204Z,99204.22
2022-12-01T16:24:27.485Z,99199.16
2022-12-01T16:26:59.585Z,99209.00
2022-12-01T16:29:29.591Z,99207.22
2022-12-01T16:32:20.152Z,99217.00
2022-12-01T16:34:48.593Z,99212.63
2022-12-01T16:37:16.640Z,99210.94
2022-12-01T16:39:44.490Z,99211.81
2022-12-01T16:42:14.972Z,99210.63
2022-12-01T16:44:44.776Z,99206.84
2022-12-01T16:47:19.412Z,99213.38
2022-12-01T16:49:47.675Z,99208.50
2022-12-01T16:52:42.883Z,99210.81
2022-12-01T16:55:03.585Z,99208.94
2022-12-01T16:57:31.365Z,99208.94
2022-12-01T16:59:59.309Z,99205.22
2022-12-01T17:02:28.685Z,99210.91
2022-12-01T17:04:56.790Z,99212.66
2022-12-01T17:07:24.651Z,99212.53
2022-12-01T17:09:55.698Z,99213.50
2022-12-01T17:12:26.318Z,99210.81
2022-12-01T17:14:54.147Z,99214.28
2022-12-01T17:17:21.893Z,99216.06
2022-12-01T17:19:52.652Z,99215.66
2022-12-01T17:22:21.117Z,99205.72
2022-12-01T17:24:50.564Z,99208.72
2022-12-01T17:27:18.890Z,99218.75
2022-12-01T17:29:46.960Z,99214.50
2022-12-01T17:32:15.506Z,99209.41
2022-12-01T17:34:43.340Z,99213.81
2022-12-01T17:37:20.455Z,99211.59
2022-12-01T17:39:49.264Z,99211.81
2022-12-01T17:42:17.275Z,99211.00
2022-12-01T17:44:45.075Z,99213.75
2022-12-01T17:47:13.207Z,99207.28
2022-12-01T17:49:41.144Z,99211.91
2022-12-01T17:52:09.555Z,99213.50
2022-12-01T17:54:38.694Z,99223.47
2022-12-01T17:57:08.911Z,99225.44
2022-12-01T17:59:37.734Z,99223.72
2022-12-01T18:02:05.851Z,99219.63
2022-12-01T18:04:34.684Z,99217.63
2022-12-01T18:07:02.629Z,99220.56
2022-12-01T18:09:30.964Z,99222.72
2022-12-01T18:12:01.820Z,99223.88
2022-12-01T18:14:32.604Z,99219.34
2022-12-01T18:17:00.425Z,99223.59
2022-12-01T18:19:28.178Z,99216.38
2022-12-01T18:21:56.409Z,99223.03
2022-12-01T18:24:24.199Z,99223.00
2022-12-01T18:26:52.024Z,99218.34
2022-12-01T18:29:26.014Z,99217.94
2022-12-01T18:31:54.823Z,99217.50
2022-12-01T18:34:22.590Z,99209.69
2022-12-01T18:36:50.652Z,99212.88
2022-12-01T18:39:18.491Z,99209.69
2022-12-01T18:41:46.304Z,99205.06
2022-12-01T18:44:14.165Z,99210.94
2022-12-01T18:46:43.408Z,99214.38
2022-12-01T18:49:12.597Z,99204.97
2022-12-01T18:51:40.583Z,99198.63
2022-12-01T18:54:09.963Z,99197.81
2022-12-01T18:56:37.788Z,99190.09
2022-12-01T18:59:08.514Z,99198.22
2022-12-01T19:01:38.267Z,99196.50
2022-12-01T19:04:08.818Z,99192.41
2022-12-01T19:06:38.253Z,99196.94
2022-12-01T19:09:09.030Z,99198.78
2022-12-01T19:11:37.240Z,99192.13
2022-12-01T19:14:05.237Z,99196.38
2022-12-01T19:16:33.250Z,99196.50
2022-12-01T19:19:02.017Z,99199.41
2022-12-01T19:21:31.204Z,99196.38
2022-12-01T19:23:59.208Z,99188.44
2022-12-01T19:26:27.348Z,99199.41
2022-12-01T19:28:55.366Z,99190.97
2022-12-01T19:31:25.046Z,99197.78
2022-12-01T19:33:54.320Z,99194.38
2022-12-01T19:36:24.258Z,99191.53
2022-12-01T19:38:57.624Z,99188.00
2022-12-01T19:41:26.331Z,99187.94
2022-12-01T19:43:54.964Z,99187.63
2022-12-01T19:46:25.558Z,99189.56
2022-12-01T19:49:00.147Z,99193.94
2022-12-01T19:51:29.974Z,99188.69
2022-12-01T19:53:59.730Z,99196.16
2022-12-01T19:56:28.794Z,99191.31
2022-12-01T19:58:57.772Z,99190.69
2022-12-01T20:01:26.310Z,99192.38
2022-12-01T20:03:55.178Z,99186.13
2022-12-01T20:06:24.777Z,99190.69
2022-12-01T20:08:55.747Z,99193.41
2022-12-01T20:11:25.714Z,99189.13
2022-12-01T20:13:54.149Z,99195.09
2022-12-01T20:16:23.448Z,99189.69
2022-12-01T20:18:54.220Z,99193.66
2022-12-01T20:21:24.219Z,99200.09
2022-12-01T20:23:55.501Z,99196.19
2022-12-01T20:26:28.943Z,99186.56
2022-12-01T20:29:03.457Z,99195.19
2022-12-01T20:31:33.694Z,99198.19
2022-12-01T20:34:04.929Z,99202.31
2022-12-01T20:36:33.125Z,99195.19
2022-12-01T20:39:01.078Z,99203.03
2022-12-01T20:41:29.078Z,99200.31
2022-12-01T20:43:57.939Z,99201.25
2022-12-01T20:46:28.699Z,99196.78
2022-12-01T20:48:56.563Z,99192.81
2022-12-01T20:51:24.486Z,99194.53
2022-12-01T20:54:19.800Z,99200.88
2022-12-01T20:56:40.233Z,99190.25
2022-12-01T20:59:08.120Z,99194.38
2022-12-01T21:01:37.466Z,99190.09
2022-12-01T21:04:06.332Z,99192.03
2022-12-01T21:06:36.466Z,99194.94
2022-12-01T21:09:07.388Z,99193.66
2022-12-01T21:11:55.618Z,99191.59
2022-12-01T21:14:26.955Z,99190.09
2022-12-01T21:16:59.922Z,99188.56
2022-12-01T21:19:36.682Z,99183.31
2022-12-01T21:22:11.175Z,99178.63
2022-12-01T21:24:43.813Z,99184.06
2022-12-01T21:27:14.240Z,99175.63
2022-12-01T21:29:44.735Z,99183.59
2022-12-01T21:32:16.663Z,99177.69
2022-12-01T21:34:46.140Z,99175.78
2022-12-01T21:37:22.248Z,99169.91
2022-12-01T21:39:51.210Z,99178.00
2022-12-01T21:42:23.565Z,99164.03
2022-12-01T21:44:51.615Z,99172.31
2022-12-01T21:47:23.236Z,99174.94
2022-12-01T21:49:53.949Z,99173.09
2022-12-01T21:52:23.585Z,99169.03
2022-12-01T21:54:52.462Z,99170.13
2022-12-01T21:57:42.337Z,99171.47
2022-12-01T22:00:27.862Z,99163.16
2022-12-01T22:03:10.644Z,99162.59
2022-12-01T22:05:41.251Z,99155.78
2022-12-01T22:08:16.698Z,99152.66
2022-12-01T22:11:12.118Z,99156.22
2022-12-01T22:13:42.235Z,99151.97
2022-12-01T22:16:15.730Z,99151.69
2022-12-01T22:18:47.319Z,99152.72
2022-12-01T22:21:41.339Z,99147.19
2022-12-01T22:24:26.503Z,99150.09
2022-12-01T22:27:10.512Z,99147.34
2022-12-01T22:29:42.928Z,99147.00
2022-12-01T22:32:46.270Z,99148.84
2022-12-01T22:35:27.383Z,99148.91
2022-12-01T22:37:59.277Z,99141.56
2022-12-01T22:40:44.557Z,99138.41
2022-12-01T22:43:44.776Z,99145.19
2022-12-01T22:46:27.801Z,99144.47
2022-12-01T22:48:57.343Z,99149.38
2022-12-01T22:51:45.749Z,99147.28
2022-12-01T22:54:42.958Z,99147.41
2022-12-01T22:57:27.389Z,99139.47
2022-12-01T22:59:56.242Z,99144.13
2022-12-01T23:02:27.171Z,99142.19
2022-12-01T23:04:59.823Z,99141.13
2022-12-01T23:07:34.522Z,99139.41
2022-12-01T23:10:08.155Z,99138.75
2022-12-01T23:12:37.093Z,99139.31
2022-12-01T23:15:32.194Z,99138.22
2022-12-01T23:18:09.447Z,99137.97
2022-12-01T23:20:37.607Z,99134.25
2022-12-01T23:23:12.056Z,99133.41
2022-12-01T23:25:43.174Z,99134.59
2022-12-01T23:28:13.545Z,99130.00
2022-12-01T23:30:43.923Z,99130.00
2022-12-01T23:33:19.865Z,99128.91
2022-12-01T23:35:52.804Z,99123.53
2022-12-01T23:38:24.669Z,99130.88
2022-12-01T23:40:54.694Z,99125.19
2022-12-01T23:43:24.848Z,99127.16
2022-12-01T23:46:00.310Z,99125.47
2022-12-01T23:48:35.066Z,99120.19
2022-12-01T23:51:03.108Z,99124.88
2022-12-01T23:53:33.787Z,99123.44
2022-12-01T23:56:05.754Z,99115.97
2022-12-01T23:58:34.685Z,99114.13
